Time;durP1;ratioP1;P1;durP2;ratioP2;P2;SDS_P1;SDS_P2;PMS_P1;PMS_P2;Temp;Humidity;BMP_temperature;BMP_pressure;BME280_temperature;BME280_humidity;BME280_pressure;Samples;Min_cycle;Max_cycle;Signal;HPM_P1;HPM_P2
2023/12/04 00:01:51;;;;;;;53.25;22.02;;;;;;;-1.28;100.00;101380.19;4982177;28;20042;-75
2023/12/04 00:04:16;;;;;;;50.28;22.10;;;;;;;-1.33;100.00;101374.31;5000105;28;20038;-74
2023/12/04 00:06:42;;;;;;;64.78;23.92;;;;;;;-1.24;100.00;101383.50;4991871;28;20561;-74
2023/12/04 00:09:07;;;;;;;47.20;21.77;;;;;;;-1.15;100.00;101380.47;4974776;28;20472;-74
2023/12/04 00:11:33;;;;;;;48.95;21.10;;;;;;;-1.31;100.00;101354.16;4991932;28;20034;-74
2023/12/04 00:13:59;;;;;;;47.47;19.75;;;;;;;-1.29;100.00;101363.63;4996858;28;20038;-75
2023/12/04 00:16:24;;;;;;;;;;;;;;;-1.15;100.00;101373.47;4997588;28;20045;-75
2023/12/04 00:18:50;;;;;;;51.35;21.88;;;;;;;-1.04;100.00;101372.09;5004087;28;19909;-74
2023/12/04 00:21:15;;;;;;;44.90;20.88;;;;;;;-1.05;100.00;101352.91;4994407;28;20043;-74
2023/12/04 00:23:40;;;;;;;;;;;;;;;-1.10;100.00;101347.88;5001138;28;20046;-75
2023/12/04 00:26:06;;;;;;;50.60;20.77;;;;;;;-1.42;100.00;101310.09;4973392;28;19913;-73
2023/12/04 00:28:31;;;;;;;51.08;21.55;;;;;;;-1.39;100.00;101317.81;4971309;28;20057;-74
2023/12/04 00:31:00;;;;;;;55.10;22.25;;;;;;;-1.23;100.00;101322.34;4992486;28;20473;-75
2023/12/04 00:33:25;;;;;;;50.50;21.73;;;;;;;-1.59;100.00;101302.16;4992722;28;20057;-74
2023/12/04 00:35:50;;;;;;;47.47;18.77;;;;;;;-1.64;100.00;101301.53;4993528;28;20488;-74
2023/12/04 00:38:15;;;;;;;;;;;;;;;-1.45;100.00;101328.59;4991091;28;20508;-74
2023/12/04 00:40:41;;;;;;;48.10;20.27;;;;;;;-1.49;100.00;101312.16;4990650;28;20381;-73
2023/12/04 00:43:06;;;;;;;54.00;21.67;;;;;;;-1.64;100.00;101294.53;4990201;28;20638;-74
2023/12/04 00:45:31;;;;;;;;;;;;;;;-1.77;100.00;101290.78;4960541;28;20038;-74
2023/12/04 00:47:57;;;;;;;54.57;21.77;;;;;;;-1.81;100.00;101297.91;4988520;28;19909;-74
2023/12/04 00:50:22;;;;;;;;;;;;;;;-1.85;100.00;101299.00;4993121;28;20557;-73
2023/12/04 00:52:48;;;;;;;61.73;25.27;;;;;;;-1.86;100.00;101306.91;4996039;28;19964;-74
2023/12/04 00:55:13;;;;;;;;;;;;;;;-1.79;100.00;101311.78;4988847;28;20030;-74
2023/12/04 00:57:38;;;;;;;;;;;;;;;-1.83;100.00;101304.97;4994617;28;19924;-74
2023/12/04 01:00:04;;;;;;;51.03;21.07;;;;;;;-1.96;100.00;101282.91;5006523;28;19932;-74
2023/12/04 01:02:30;;;;;;;;;;;;;;;-1.90;100.00;101298.31;4999104;28;20033;-74
2023/12/04 01:04:55;;;;;;;56.28;21.42;;;;;;;-1.99;100.00;101290.88;5000776;28;20328;-75
2023/12/04 01:07:20;;;;;;;;;;;;;;;-2.10;100.00;101291.38;4995934;28;20038;-74
2023/12/04 01:09:46;;;;;;;62.93;24.23;;;;;;;-2.02;100.00;101304.97;4994075;28;19913;-74
2023/12/04 01:12:11;;;;;;;;;;;;;;;-1.96;100.00;101309.09;4974862;28;20030;-74
2023/12/04 01:14:38;;;;;;;53.85;21.35;;;;;;;-2.10;100.00;101298.38;4994178;28;19924;-74
2023/12/04 01:17:06;;;;;;;61.47;22.48;;;;;;;-2.17;100.00;101296.03;4995805;28;20030;-73
2023/12/04 01:19:32;;;;;;;53.33;22.98;;;;;;;-2.14;100.00;101306.34;4970456;28;20030;-74
2023/12/04 01:21:57;;;;;;;60.90;25.58;;;;;;;-2.17;100.00;101310.88;4987399;28;20038;-74
2023/12/04 01:24:22;;;;;;;60.25;23.77;;;;;;;-2.13;100.00;101326.38;4990120;28;20034;-74
2023/12/04 01:26:48;;;;;;;65.93;25.08;;;;;;;-2.17;100.00;101297.81;4992338;28;20089;-73
2023/12/04 01:29:13;;;;;;;;;;;;;;;-2.17;100.00;101306.50;4992839;28;20053;-74
2023/12/04 01:31:38;;;;;;;54.43;21.37;;;;;;;-2.11;100.00;101310.59;4991919;28;19925;-74
2023/12/04 01:34:03;;;;;;;;;;;;;;;-2.23;100.00;101298.06;4990663;28;20057;-75
2023/12/04 01:36:29;;;;;;;60.00;24.10;;;;;;;-2.08;100.00;101307.00;4976257;28;19921;-74
2023/12/04 01:38:54;;;;;;;;;;;;;;;-2.14;100.00;101288.03;4991430;28;20033;-74
2023/12/04 01:41:19;;;;;;;49.47;18.73;;;;;;;-2.13;100.00;101292.38;4997915;28;20064;-75
2023/12/04 01:43:45;;;;;;;57.33;19.95;;;;;;;-2.05;100.00;101293.78;5000207;28;20485;-74
2023/12/04 01:46:16;;;;;;;52.42;20.48;;;;;;;-2.33;100.00;101268.84;4997585;28;20038;-74
2023/12/04 01:48:42;;;;;;;58.30;20.70;;;;;;;-2.27;100.00;101279.06;4994040;28;20144;-74
2023/12/04 01:51:09;;;;;;;56.28;23.33;;;;;;;-2.30;100.00;101275.72;4991856;28;20534;-75
2023/12/04 01:53:38;;;;;;;49.90;22.00;;;;;;;-2.28;100.00;101276.50;4993772;28;20116;-74
2023/12/04 01:56:04;;;;;;;59.38;21.52;;;;;;;-2.33;100.00;101280.16;4979858;28;20041;-73
2023/12/04 01:58:29;;;;;;;54.33;21.83;;;;;;;-2.27;100.00;101272.94;4987222;28;20039;-74
2023/12/04 02:00:55;;;;;;;58.15;23.65;;;;;;;-2.23;100.00;101279.75;4969668;28;20107;-74
2023/12/04 02:03:20;;;;;;;;;;;;;;;-2.27;100.00;101279.06;4989967;28;20113;-73
2023/12/04 02:05:46;;;;;;;55.15;20.83;;;;;;;-2.17;100.00;101276.88;4993793;28;19919;-74
2023/12/04 02:08:11;;;;;;;54.05;21.13;;;;;;;-2.22;100.00;101282.31;5001859;28;20029;-74
2023/12/04 02:10:38;;;;;;;51.50;21.42;;;;;;;-2.22;100.00;101266.63;4971749;28;20442;-74
2023/12/04 02:13:04;;;;;;;60.15;23.08;;;;;;;-2.40;100.00;101246.50;4969318;28;20124;-74
2023/12/04 02:15:29;;;;;;;50.08;21.60;;;;;;;-2.24;100.00;101267.59;4981492;28;20447;-74
2023/12/04 02:17:54;;;;;;;;;;;;;;;-2.26;100.00;101265.03;5001526;28;20101;-74
2023/12/04 02:20:20;;;;;;;56.53;20.90;;;;;;;-2.35;100.00;101241.91;5002649;28;19920;-74
2023/12/04 02:22:45;;;;;;;;;;;;;;;-2.20;100.00;101242.97;4993236;28;20093;-74
2023/12/04 02:25:11;;;;;;;54.87;21.03;;;;;;;-2.28;100.00;101234.63;4991707;28;19910;-73
2023/12/04 02:27:46;;;;;;;;;;;;;;;-2.28;100.00;101219.78;5004560;28;20049;-73
2023/12/04 02:30:13;;;;;;;49.83;19.48;;;;;;;-2.35;100.00;101210.53;5007209;28;19924;-74
2023/12/04 02:32:45;;;;;;;53.42;22.52;;;;;;;-2.37;100.00;101212.34;4991523;28;20896;-74
2023/12/04 02:35:12;;;;;;;57.53;19.60;;;;;;;-2.47;100.00;101195.38;4968514;28;20037;-74
2023/12/04 02:37:39;;;;;;;57.00;21.52;;;;;;;-2.60;100.00;101185.47;4988934;28;20041;-74
2023/12/04 02:40:06;;;;;;;52.45;20.60;;;;;;;-2.67;100.00;101176.19;4977459;28;20486;-74
2023/12/04 02:42:32;;;;;;;56.85;23.10;;;;;;;-2.79;100.00;101181.94;4959505;28;20022;-73
2023/12/04 02:44:57;;;;;;;55.47;21.48;;;;;;;-2.80;100.00;101185.47;4992176;28;20417;-74
2023/12/04 02:47:23;;;;;;;;;;;;;;;-2.73;100.00;101189.53;4989149;28;20034;-73
2023/12/04 02:49:48;;;;;;;55.13;22.27;;;;;;;-2.73;100.00;101186.91;4969034;28;20728;-74
2023/12/04 02:52:13;;;;;;;50.20;19.60;;;;;;;-2.69;100.00;101198.94;4985943;28;20297;-74
2023/12/04 02:54:39;;;;;;;;;;;;;;;-2.83;100.00;101191.69;4986835;28;20069;-73
2023/12/04 02:57:04;;;;;;;56.60;22.87;;;;;;;-2.86;100.00;101170.06;4988126;28;19920;-74
2023/12/04 02:59:29;;;;;;;;;;;;;;;-2.88;100.00;101169.28;4995334;28;20030;-74
2023/12/04 03:01:55;;;;;;;55.30;18.47;;;;;;;-2.85;100.00;101177.84;4992121;28;19913;-73
2023/12/04 03:04:20;;;;;;;;;;;;;;;-2.86;100.00;101176.13;4991988;28;20614;-74
2023/12/04 03:06:45;;;;;;;58.27;21.37;;;;;;;-3.02;100.00;101162.03;4993594;28;19984;-75
2023/12/04 03:09:11;;;;;;;;;;;;;;;-2.95;100.00;101176.56;4991776;28;20289;-74
2023/12/04 03:11:39;;;;;;;;;;;;;;;-2.98;100.00;101174.88;4991191;28;19917;-74
2023/12/04 03:14:04;;;;;;;59.20;24.27;;;;;;;-2.96;100.00;101161.78;4976694;28;19913;-74
2023/12/04 03:16:33;;;;;;;;;;;;;;;-3.01;100.00;101161.97;4970515;28;20559;-74
2023/12/04 03:18:58;;;;;;;61.00;20.92;;;;;;;-3.11;100.00;101154.59;4974664;28;20027;-74
2023/12/04 03:21:24;;;;;;;;;;;;;;;-2.96;100.00;101169.59;4992267;28;20046;-74
2023/12/04 03:23:49;;;;;;;63.45;22.02;;;;;;;-3.01;100.00;101151.50;4986490;28;19917;-74
2023/12/04 03:26:14;;;;;;;;;;;;;;;-3.10;100.00;101148.44;4969034;28;20034;-74
2023/12/04 03:28:40;;;;;;;60.77;21.20;;;;;;;-3.20;100.00;101145.38;4968778;28;19917;-75
2023/12/04 03:31:05;;;;;;;;;;;;;;;-3.25;100.00;101142.13;4968981;28;20289;-73
2023/12/04 03:33:30;;;;;;;;;;;;;;;-3.25;100.00;101142.13;4985007;28;19958;-74
2023/12/04 03:35:56;;;;;;;;;;;;;;;-3.16;100.00;101151.31;4972856;28;19918;-74
2023/12/04 03:38:21;;;;;;;62.60;20.90;;;;;;;-3.27;100.00;101143.94;4991889;28;19916;-74
2023/12/04 03:40:46;;;;;;;;;;;;;;;-3.14;100.00;101157.31;4986344;28;20049;-74
2023/12/04 03:43:12;;;;;;;;;;;;;;;-3.24;100.00;101143.81;4968890;28;20042;-73
2023/12/04 03:45:40;;;;;;;62.97;21.30;;;;;;;-3.31;100.00;101144.97;4988689;28;19917;-73
2023/12/04 03:48:05;;;;;;;50.63;21.50;;;;;;;-3.27;100.00;101141.34;4989177;28;20538;-74
2023/12/04 03:50:30;;;;;;;;;;;;;;;-3.25;100.00;101137.75;4990312;28;20030;-74
2023/12/04 03:52:55;;;;;;;66.93;23.53;;;;;;;-3.41;100.00;101119.25;4989213;28;19936;-74
2023/12/04 03:55:21;;;;;;;;;;;;;;;-3.31;100.00;101126.69;4995773;28;20042;-74
2023/12/04 03:57:46;;;;;;;50.53;20.77;;;;;;;-3.49;100.00;101118.72;4994451;28;19917;-74
2023/12/04 04:00:12;;;;;;;;;;;;;;;-3.35;100.00;101119.91;4972234;28;20042;-73
2023/12/04 04:02:44;;;;;;;60.40;23.98;;;;;;;-3.41;100.00;101111.41;4989264;28;19964;-74
2023/12/04 04:05:09;;;;;;;57.25;22.73;;;;;;;-3.47;100.00;101109.06;4997436;28;20049;-73
2023/12/04 04:07:35;;;;;;;;;;;;;;;-3.21;100.00;101112.31;4998544;28;20033;-73
2023/12/04 04:10:00;;;;;;;;;;;;;;;-3.37;100.00;101106.06;4992132;28;19941;-73
2023/12/04 04:12:27;;;;;;;59.67;21.70;;;;;;;-3.45;100.00;101088.94;4988935;28;19914;-74
2023/12/04 04:14:52;;;;;;;56.03;21.13;;;;;;;-3.41;100.00;101095.75;4988843;28;20092;-74
2023/12/04 04:17:17;;;;;;;;;;;;;;;-3.40;100.00;101101.81;4984745;28;20650;-74
2023/12/04 04:19:43;;;;;;;68.68;24.73;;;;;;;-3.31;100.00;101092.75;5007119;28;20511;-74
2023/12/04 04:22:08;;;;;;;;;;;;;;;-3.42;100.00;101075.78;5000705;28;20039;-74
2023/12/04 04:24:33;;;;;;;53.83;20.73;;;;;;;-3.43;100.00;101071.47;4991317;28;19917;-75
2023/12/04 04:26:58;;;;;;;;;;;;;;;-3.29;100.00;101078.72;4990556;28;20284;-73
2023/12/04 04:29:24;;;;;;;57.07;20.47;;;;;;;-3.50;100.00;101062.19;4989331;28;19913;-73
2023/12/04 04:31:49;;;;;;;;;;;;;;;-3.44;100.00;101067.19;5000069;28;20029;-74
2023/12/04 04:34:14;;;;;;;;;;;;;;;-3.33;100.00;101060.63;4972227;28;19917;-74
2023/12/04 04:36:40;;;;;;;69.57;23.77;;;;;;;-3.42;100.00;101052.28;4996885;28;20308;-74
2023/12/04 04:39:06;;;;;;;;;;;;;;;-3.37;100.00;101056.44;4979497;28;20037;-73
2023/12/04 04:41:31;;;;;;;51.47;19.83;;;;;;;-3.56;100.00;101028.50;4995583;28;19913;-73
2023/12/04 04:43:57;;;;;;;;;;;;;;;-3.50;100.00;101019.59;4998752;28;20126;-74
2023/12/04 04:46:22;;;;;;;60.42;22.27;;;;;;;-3.56;100.00;101023.28;4981797;28;19937;-73
2023/12/04 04:48:47;;;;;;;;;;;;;;;-3.57;100.00;101016.41;4989372;28;20442;-74
2023/12/04 04:51:13;;;;;;;51.22;18.85;;;;;;;-3.49;100.00;101008.22;4993227;28;20018;-74
2023/12/04 04:53:38;;;;;;;;;;;;;;;-3.41;100.00;101017.44;4975267;28;20512;-73
2023/12/04 04:56:04;;;;;;;54.53;21.80;;;;;;;-3.34;100.00;101017.19;4999528;28;19921;-74
2023/12/04 04:58:30;;;;;;;56.30;21.45;;;;;;;-3.52;100.00;100988.31;4986876;28;20042;-74
2023/12/04 05:00:58;;;;;;;;;;;;;;;-3.68;100.00;100975.09;4971724;28;20033;-73
2023/12/04 05:03:23;;;;;;;58.00;20.65;;;;;;;-3.53;100.00;100978.81;4970987;28;19918;-74
2023/12/04 05:05:49;;;;;;;;;;;;;;;-3.54;100.00;100982.31;4971751;28;20504;-74
2023/12/04 05:08:14;;;;;;;;;;;;;;;-3.76;100.00;100966.75;4990701;28;19967;-74
2023/12/04 05:10:39;;;;;;;60.67;20.43;;;;;;;-3.67;100.00;100978.56;4974943;28;19913;-73
2023/12/04 05:13:05;;;;;;;;;;;;;;;-3.54;100.00;100990.16;4987208;28;20049;-74
2023/12/04 05:15:30;;;;;;;55.35;20.35;;;;;;;-3.72;100.00;100970.94;4994164;28;19917;-74
2023/12/04 05:17:55;;;;;;;;;;;;;;;-3.77;100.00;100966.81;5000636;28;20026;-73
2023/12/04 05:20:20;;;;;;;;;;;;;;;-3.62;100.00;100987.03;4971070;28;19921;-74
2023/12/04 05:22:46;;;;;;;58.13;20.40;;;;;;;-3.86;100.00;100968.06;4987510;28;20384;-73
2023/12/04 05:25:11;;;;;;;;;;;;;;;-3.87;100.00;100982.00;4988302;28;20042;-73
2023/12/04 05:27:36;;;;;;;;;;;;;;;-3.71;100.00;100990.88;4988140;28;19913;-73
2023/12/04 05:30:05;;;;;;;61.50;23.73;;;;;;;-3.80;100.00;100983.44;4995783;28;19921;-74
2023/12/04 05:32:30;;;;;;;50.83;19.45;;;;;;;-3.62;100.00;100987.88;4988777;28;20281;-74
2023/12/04 05:34:55;;;;;;;;;;;;;;;-3.49;100.00;100992.56;4995915;28;20033;-74
2023/12/04 05:37:21;;;;;;;61.30;23.07;;;;;;;-3.73;100.00;100958.78;4994119;28;19969;-73
2023/12/04 05:39:47;;;;;;;;;;;;;;;-3.93;100.00;100949.22;4990809;28;21098;-74
2023/12/04 05:42:12;;;;;;;59.03;24.00;;;;;;;-3.94;100.00;100955.31;4969826;28;19909;-73
2023/12/04 05:44:37;;;;;;;;;;;;;;;-4.07;100.00;100956.78;4992057;23;20597;-74
2023/12/04 05:47:02;;;;;;;60.75;21.35;;;;;;;-3.95;100.00;100979.72;4967806;28;19926;-75
2023/12/04 05:49:29;;;;;;;;;;;;;;;-3.76;100.00;100995.44;4975050;28;20294;-75
2023/12/04 05:51:54;;;;;;;62.55;23.98;;;;;;;-3.58;100.00;101008.63;4987938;28;19937;-75
2023/12/04 05:54:19;;;;;;;;;;;;;;;-3.48;100.00;101010.78;4958039;28;20485;-74
2023/12/04 05:56:45;;;;;;;61.08;21.80;;;;;;;-3.72;100.00;100980.50;4955249;28;19914;-75
2023/12/04 05:59:10;;;;;;;;;;;;;;;-3.54;100.00;100994.53;4965239;28;20650;-75
2023/12/04 06:01:36;;;;;;;67.03;24.30;;;;;;;-3.50;100.00;100976.06;4959818;28;20396;-73
2023/12/04 06:04:01;;;;;;;;;;;;;;;-3.48;100.00;100992.50;4963380;28;20032;-76
2023/12/04 06:06:27;;;;;;;52.15;22.75;;;;;;;-3.44;100.00;100986.25;4965853;28;19914;-76
2023/12/04 06:08:52;;;;;;;;;;;;;;;-3.26;100.00;100988.94;4964741;28;20110;-75
2023/12/04 06:11:17;;;;;;;61.25;22.38;;;;;;;-3.26;100.00;100978.50;4966739;28;19925;-75
2023/12/04 06:13:42;;;;;;;;;;;;;;;-3.35;100.00;100965.84;4950625;28;20029;-75
2023/12/04 06:16:08;;;;;;;67.83;24.53;;;;;;;-3.29;100.00;100970.81;4966119;28;19922;-74
2023/12/04 06:18:33;;;;;;;;;;;;;;;-3.23;100.00;100983.56;4964800;28;20125;-73
2023/12/04 06:20:59;;;;;;;62.00;23.27;;;;;;;-3.43;100.00;100961.81;4962989;28;19910;-74
2023/12/04 06:23:24;;;;;;;;;;;;;;;-3.48;100.00;100965.56;4964404;28;20034;-75
2023/12/04 06:25:50;;;;;;;64.43;24.13;;;;;;;-3.33;100.00;100982.31;4966251;28;19993;-73
2023/12/04 06:28:15;;;;;;;;;;;;;;;-3.19;100.00;100990.38;4955303;28;20406;-76
2023/12/04 06:30:43;;;;;;;69.72;25.13;;;;;;;-3.06;100.00;100996.75;4982075;28;20093;-73
2023/12/04 06:33:09;;;;;;;;;;;;;;;-3.16;100.00;100978.94;4967142;28;20113;-75
2023/12/04 06:35:35;;;;;;;;;;;;;;;-3.17;100.00;100972.03;4965396;28;19919;-74
2023/12/04 06:38:07;;;;;;;65.05;23.90;;;;;;;-3.15;100.00;100967.59;4965826;28;19914;-75
2023/12/04 06:40:34;;;;;;;60.30;24.27;;;;;;;-3.28;100.00;100956.81;4967371;28;20047;-75
2023/12/04 06:43:00;;;;;;;69.50;24.55;;;;;;;-3.08;100.00;100961.16;4965405;28;20041;-75
2023/12/04 06:45:27;;;;;;;;;;;;;;;-3.02;100.00;100958.25;4948344;28;20035;-76
2023/12/04 06:47:54;;;;;;;57.70;23.95;;;;;;;-3.17;100.00;100938.91;4982157;28;19917;-74
2023/12/04 06:50:19;;;;;;;63.30;23.63;;;;;;;-3.26;100.00;100934.94;4952597;28;20050;-75
2023/12/04 06:52:45;;;;;;;;;;;;;;;-3.14;100.00;100945.75;4959331;28;20034;-76
2023/12/04 06:55:12;;;;;;;65.30;23.90;;;;;;;-3.20;100.00;100939.06;4965900;28;19914;-75
2023/12/04 06:57:38;;;;;;;70.82;27.42;;;;;;;-3.12;100.00;100946.53;4965169;28;20431;-76
2023/12/04 07:00:03;;;;;;;;;;;;;;;-3.33;100.00;100930.09;4959101;28;20090;-74
2023/12/04 07:02:29;;;;;;;60.70;26.23;;;;;;;-3.21;100.00;100930.38;4957415;28;19945;-76
2023/12/04 07:04:54;;;;;;;;;;;;;;;-3.41;100.00;100913.00;4958277;28;20114;-75
2023/12/04 07:07:19;;;;;;;73.50;27.27;;;;;;;-3.48;100.00;100915.97;4962217;28;19914;-75
2023/12/04 07:09:45;;;;;;;;;;;;;;;-3.57;100.00;100917.22;4950233;28;20661;-75
2023/12/04 07:12:10;;;;;;;68.37;26.43;;;;;;;-3.55;100.00;100919.75;4978580;28;19965;-76
2023/12/04 07:14:35;;;;;;;;;;;;;;;-3.42;100.00;100923.50;4966246;28;20027;-76
2023/12/04 07:17:01;;;;;;;59.13;24.45;;;;;;;-3.56;100.00;100911.06;4965392;28;20385;-74
2023/12/04 07:19:26;;;;;;;;;;;;;;;-3.54;100.00;100914.47;4956652;28;20030;-75
2023/12/04 07:21:52;;;;;;;64.30;26.27;;;;;;;-3.52;100.00;100914.41;4983468;28;19921;-74
2023/12/04 07:24:17;;;;;;;;;;;;;;;-3.58;100.00;100904.22;4971383;28;20041;-75
2023/12/04 07:26:43;;;;;;;68.50;25.90;;;;;;;-3.38;100.00;100921.63;4964985;28;19997;-74
2023/12/04 07:29:08;;;;;;;;;;;;;;;-3.35;100.00;100916.25;4970035;28;20048;-73
2023/12/04 07:31:33;;;;;;;65.28;25.17;;;;;;;-3.43;100.00;100906.16;4968360;28;20049;-73
2023/12/04 07:34:01;;;;;;;;;;;;;;;-3.56;100.00;100882.34;4970267;28;20504;-73
2023/12/04 07:36:27;;;;;;;67.32;25.30;;;;;;;-3.34;100.00;100902.28;4959861;28;19992;-75
2023/12/04 07:38:53;;;;;;;;;;;;;;;-3.43;100.00;100893.09;4970001;28;20511;-75
2023/12/04 07:41:19;;;;;;;70.10;26.08;;;;;;;-3.26;100.00;100910.59;4970785;28;20585;-73
2023/12/04 07:43:44;;;;;;;;;;;;;;;-3.17;100.00;100909.34;4967399;28;20038;-75
2023/12/04 07:46:11;;;;;;;63.65;24.05;;;;;;;-3.06;100.00;100914.94;4969243;28;20021;-75
2023/12/04 07:48:39;;;;;;;61.72;23.17;;;;;;;-3.36;100.00;100878.00;4972639;28;20114;-75
2023/12/04 07:51:09;;;;;;;60.65;26.73;;;;;;;-3.35;100.00;100879.69;4958681;28;20676;-75
2023/12/04 07:53:34;;;;;;;65.78;23.80;;;;;;;-3.43;100.00;100867.84;4970405;28;20038;-75
2023/12/04 07:56:05;;;;;;;;;;;;;;;-3.11;100.00;100896.84;4964294;28;20100;-74
2023/12/04 07:58:31;;;;;;;59.92;25.00;;;;;;;-3.09;100.00;100887.19;4970358;28;19922;-75
2023/12/04 08:00:57;;;;;;;;;;;;;;;-3.33;100.00;100867.41;4970350;28;20394;-75
2023/12/04 08:03:23;;;;;;;67.28;23.52;;;;;;;-3.13;100.00;100869.97;4958457;28;19914;-75
2023/12/04 08:05:50;;;;;;;61.10;23.80;;;;;;;-3.15;100.00;100863.13;4968800;28;20034;-75
2023/12/04 08:08:15;;;;;;;68.63;24.83;;;;;;;-2.88;100.00;100876.63;4952959;28;20105;-73
2023/12/04 08:10:44;;;;;;;;;;;;;;;-3.00;100.00;100857.16;4957915;28;20023;-76
2023/12/04 08:13:09;;;;;;;60.75;21.85;;;;;;;-3.03;100.00;100858.16;4985010;28;20417;-74
2023/12/04 08:15:34;;;;;;;;;;;;;;;-2.90;100.00;100868.00;4969550;28;20077;-73
2023/12/04 08:18:00;;;;;;;56.67;21.57;;;;;;;-3.07;100.00;100853.97;4967983;28;19914;-73
2023/12/04 08:20:25;;;;;;;;;;;;;;;-3.30;100.00;100825.50;4969210;28;20041;-75
2023/12/04 08:22:51;;;;;;;56.25;21.55;;;;;;;-3.10;100.00;100843.69;4969036;28;19981;-75
2023/12/04 08:25:20;;;;;;;;;;;;;;;-3.06;100.00;100841.78;4970429;28;20492;-76
2023/12/04 08:27:49;;;;;;;54.90;21.83;;;;;;;-3.30;100.00;100823.75;4971340;28;19921;-76
2023/12/04 08:30:15;;;;;;;57.38;21.05;;;;;;;-3.07;100.00;100837.47;4964852;28;20023;-75
2023/12/04 08:32:40;;;;;;;;;;;;;;;-3.13;100.00;100833.41;4970809;28;20366;-75
2023/12/04 08:35:06;;;;;;;;;;;;;;;-3.29;100.00;100812.38;4985133;28;19918;-75
2023/12/04 08:37:31;;;;;;;59.53;25.83;;;;;;;-3.27;100.00;100814.91;4969856;28;20339;-74
2023/12/04 08:39:57;;;;;;;;;;;;;;;-3.10;100.00;100830.63;4970280;28;20042;-75
2023/12/04 08:42:22;;;;;;;56.75;21.70;;;;;;;-3.18;100.00;100814.50;4969524;28;19921;-73
2023/12/04 08:44:47;;;;;;;;;;;;;;;-3.03;100.00;100829.41;4968778;28;20844;-75
2023/12/04 08:47:13;;;;;;;48.60;21.08;;;;;;;-2.92;100.00;100825.47;4967715;28;20684;-75
2023/12/04 08:49:40;;;;;;;;;;;;;;;-2.82;100.00;100821.47;4968851;28;20131;-73
2023/12/04 08:52:06;;;;;;;52.65;21.88;;;;;;;-3.01;100.00;100806.69;4969270;28;19994;-75
2023/12/04 08:54:32;;;;;;;47.88;19.63;;;;;;;-3.02;100.00;100797.16;4969601;28;20107;-75
2023/12/04 08:56:57;;;;;;;;;;;;;;;-3.23;100.00;100775.53;4968461;28;20654;-75
2023/12/04 08:59:28;;;;;;;55.60;23.10;;;;;;;-3.30;100.00;100773.28;4969718;28;20156;-73
2023/12/04 09:01:54;;;;;;;55.15;22.67;;;;;;;-3.11;100.00;100809.81;4967950;28;20117;-75
2023/12/04 09:04:19;;;;;;;;;;;;;;;-3.20;100.00;100813.72;4968646;28;20126;-75
2023/12/04 09:06:44;;;;;;;55.50;23.47;;;;;;;-2.88;100.00;100848.75;4948981;28;19915;-74
2023/12/04 09:09:11;;;;;;;;;;;;;;;-3.11;100.00;100813.28;4967027;28;20045;-76
2023/12/04 09:11:40;;;;;;;66.88;22.65;;;;;;;-3.11;100.00;100823.72;4969193;28;20533;-76
2023/12/04 09:14:06;;;;;;;56.00;20.23;;;;;;;-3.14;100.00;100834.28;4968980;28;20039;-76
2023/12/04 09:16:31;;;;;;;;;;;;;;;-3.05;100.00;100835.63;4968223;28;20098;-74
2023/12/04 09:19:00;;;;;;;56.75;23.00;;;;;;;-2.68;100.00;100871.28;4968953;28;19965;-73
2023/12/04 09:21:26;;;;;;;50.35;20.48;;;;;;;-3.02;100.00;100825.91;4948477;28;20401;-74
2023/12/04 09:23:51;;;;;;;62.75;22.35;;;;;;;-2.93;100.00;100828.97;4965649;28;20022;-75
2023/12/04 09:26:17;;;;;;;;;;;;;;;-2.87;100.00;100850.44;4948748;28;20382;-73
2023/12/04 09:28:42;;;;;;;63.03;23.33;;;;;;;-2.56;100.00;100878.53;4947382;28;19914;-76
2023/12/04 09:31:08;;;;;;;;;;;;;;;-2.61;100.00;100871.84;4968917;28;20644;-75
2023/12/04 09:33:34;;;;;;;48.72;20.70;;;;;;;-2.58;100.00;100864.69;4971503;28;19926;-74
2023/12/04 09:35:59;;;;;;;;;;;;;;;-2.71;100.00;100847.94;4951548;28;20062;-74
2023/12/04 09:38:24;;;;;;;53.63;20.37;;;;;;;-2.91;100.00;100814.06;4968794;28;19921;-76
2023/12/04 09:40:52;;;;;;;;;;;;;;;-2.82;100.00;100848.44;4964425;28;20039;-75
2023/12/04 09:43:17;;;;;;;53.70;22.40;;;;;;;-2.77;100.00;100850.81;4956282;28;20352;-75
2023/12/04 09:45:43;;;;;;;;;;;;;;;-2.77;100.00;100845.59;4947260;28;20109;-73
2023/12/04 09:48:09;;;;;;;;;;;;;;;-2.92;100.00;100847.19;4969026;28;19996;-73
2023/12/04 09:50:38;;;;;;;;;;;;;;;-3.04;100.00;100840.78;4948594;28;19914;-75
2023/12/04 09:53:06;;;;;;;61.67;24.17;;;;;;;-2.95;100.00;100856.94;4965090;28;20269;-75
2023/12/04 09:55:31;;;;;;;57.45;22.33;;;;;;;-2.74;100.00;100884.63;4983328;28;20023;-74
2023/12/04 09:57:57;;;;;;;;;;;;;;;-2.77;100.00;100876.97;4968658;28;20086;-76
2023/12/04 10:00:23;;;;;;;58.08;21.15;;;;;;;-2.54;100.00;100881.06;4952029;28;19984;-75
2023/12/04 10:02:48;;;;;;;55.10;20.63;;;;;;;-2.53;100.00;100874.91;4953528;28;20073;-74
2023/12/04 10:05:14;;;;;;;46.58;19.20;;;;;;;-2.80;100.00;100850.97;4966914;28;20050;-75
2023/12/04 10:07:42;;;;;;;;;;;;;;;-2.73;100.00;100873.28;4951101;28;20500;-75
2023/12/04 10:10:16;;;;;;;50.70;21.05;;;;;;;-2.48;100.00;100893.84;4967801;28;20493;-75
2023/12/04 10:12:43;;;;;;;56.53;18.88;;;;;;;-2.64;100.00;100878.06;4948669;28;20081;-73
2023/12/04 10:15:11;;;;;;;47.38;17.95;;;;;;;-2.46;100.00;100897.25;4966996;28;20047;-73
2023/12/04 10:17:41;;;;;;;49.40;19.00;;;;;;;-2.46;100.00;100905.09;4965411;28;20030;-75
2023/12/04 10:20:18;;;;;;;51.90;21.38;;;;;;;-2.32;100.00;100907.00;4964158;28;20038;-75
2023/12/04 10:23:00;;;;;;;50.92;19.23;;;;;;;-2.22;100.00;100925.72;4966059;28;20031;-72
2023/12/04 10:25:29;;;;;;;42.40;18.20;;;;;;;-2.29;100.00;100898.19;4950355;28;20038;-74
2023/12/04 10:28:08;;;;;;;44.50;18.30;;;;;;;-2.08;100.00;100912.78;4947088;28;20490;-75
2023/12/04 10:30:33;;;;;;;46.67;17.00;;;;;;;-2.18;100.00;100907.19;4949907;28;20843;-73
2023/12/04 10:33:02;;;;;;;44.72;16.70;;;;;;;-2.32;100.00;100883.44;4949198;28;20038;-76
2023/12/04 10:35:32;;;;;;;46.42;18.63;;;;;;;-2.09;100.00;100898.00;4967279;28;20030;-75
2023/12/04 10:37:59;;;;;;;41.55;17.27;;;;;;;-2.25;100.00;100868.31;4965556;28;20035;-76
2023/12/04 10:40:31;;;;;;;45.78;18.02;;;;;;;-2.33;100.00;100853.00;4946662;28;20027;-75
2023/12/04 10:43:08;;;;;;;40.72;16.90;;;;;;;-2.35;100.00;100839.16;4962407;28;20668;-74
2023/12/04 10:45:34;;;;;;;44.63;17.38;;;;;;;-2.14;100.00;100859.00;4966148;28;20046;-75
2023/12/04 10:48:00;;;;;;;;;;;;;;;-2.28;100.00;100845.78;4950117;28;20057;-74
2023/12/04 10:50:26;;;;;;;41.67;15.63;;;;;;;-2.30;100.00;100824.06;4967135;28;19914;-75
2023/12/04 10:52:53;;;;;;;41.58;17.08;;;;;;;-2.35;100.00;100820.84;4966616;28;20045;-74
2023/12/04 10:55:22;;;;;;;38.78;18.13;;;;;;;-2.12;100.00;100838.00;4981739;28;20038;-75
2023/12/04 10:57:51;;;;;;;48.45;18.20;;;;;;;-2.44;100.00;100798.63;4965311;28;20031;-75
2023/12/04 11:00:17;;;;;;;44.88;17.00;;;;;;;-2.27;100.00;100818.72;4965240;28;20026;-74
2023/12/04 11:02:46;;;;;;;49.58;20.80;;;;;;;-2.19;100.00;100820.94;4949309;28;20031;-74
2023/12/04 11:05:16;;;;;;;44.95;18.48;;;;;;;-2.36;100.00;100806.09;4965214;28;20034;-75
2023/12/04 11:07:51;;;;;;;48.65;19.13;;;;;;;-2.01;100.00;100829.59;4965432;28;20042;-75
2023/12/04 11:10:17;;;;;;;45.80;18.15;;;;;;;-2.18;100.00;100802.53;4966692;28;20053;-74
2023/12/04 11:12:47;;;;;;;44.83;17.73;;;;;;;-2.33;100.00;100785.00;4966515;28;20030;-75
2023/12/04 11:15:17;;;;;;;47.65;19.02;;;;;;;-2.15;100.00;100802.38;4949000;28;20105;-75
2023/12/04 11:17:51;;;;;;;48.20;19.00;;;;;;;-2.21;100.00;100784.38;4965060;28;20031;-74
2023/12/04 11:20:20;;;;;;;42.67;18.70;;;;;;;-2.25;100.00;100769.75;4966229;28;20034;-74
2023/12/04 11:22:47;;;;;;;47.58;18.60;;;;;;;-2.39;100.00;100757.44;4965135;28;20034;-74
2023/12/04 11:25:14;;;;;;;48.75;18.20;;;;;;;-2.41;100.00;100763.63;4965355;28;20470;-73
2023/12/04 11:27:40;;;;;;;;;;;;;;;-2.13;100.00;100789.22;4965661;28;20105;-73